createdAt,value
2024-05-09T00:00:59.644Z,8.68
2024-05-09T00:03:28.975Z,8.62
2024-05-09T00:05:58.153Z,8.61
2024-05-09T00:08:27.739Z,8.59
2024-05-09T00:10:58.011Z,8.58
2024-05-09T00:13:27.956Z,8.57
2024-05-09T00:15:57.572Z,8.55
2024-05-09T00:18:27.488Z,8.50
2024-05-09T00:20:56.997Z,8.38
2024-05-09T00:23:26.652Z,8.34
2024-05-09T00:25:56.209Z,8.33
2024-05-09T00:28:26.086Z,8.31
2024-05-09T00:30:55.340Z,8.35
2024-05-09T00:33:30.009Z,8.34
2024-05-09T00:35:59.328Z,8.33
2024-05-09T00:38:28.743Z,8.31
2024-05-09T00:40:58.068Z,8.32
2024-05-09T00:43:27.382Z,8.34
2024-05-09T00:45:57.615Z,8.36
2024-05-09T00:48:27.675Z,8.38
2024-05-09T00:50:57.901Z,8.43
2024-05-09T00:53:28.172Z,8.36
2024-05-09T00:56:00.487Z,8.34
2024-05-09T00:58:32.062Z,8.30
2024-05-09T01:01:04.482Z,8.33
2024-05-09T01:03:36.900Z,8.29
2024-05-09T01:06:07.323Z,8.31
2024-05-09T01:08:38.197Z,8.26
2024-05-09T01:11:10.610Z,8.18
2024-05-09T01:13:40.858Z,8.23
2024-05-09T01:16:10.452Z,8.24
2024-05-09T01:18:40.986Z,8.22
2024-05-09T01:21:11.331Z,8.21
2024-05-09T01:23:42.780Z,8.13
2024-05-09T01:26:11.742Z,8.09
2024-05-09T01:28:43.544Z,8.12
2024-05-09T01:31:15.889Z,8.06
2024-05-09T01:33:45.931Z,8.05
2024-05-09T01:36:16.839Z,8.01
2024-05-09T01:38:48.490Z,7.98
2024-05-09T01:41:18.880Z,7.99
2024-05-09T01:43:49.366Z,7.96
2024-05-09T01:46:17.224Z,7.90
2024-05-09T01:48:46.341Z,7.87
2024-05-09T01:51:16.689Z,7.88
2024-05-09T01:53:46.971Z,7.87
2024-05-09T01:56:17.054Z,7.82
2024-05-09T01:58:47.477Z,7.82
2024-05-09T02:01:17.330Z,7.73
2024-05-09T02:03:48.467Z,7.73
2024-05-09T02:06:19.535Z,7.72
2024-05-09T02:08:49.552Z,7.68
2024-05-09T02:11:19.692Z,7.70
2024-05-09T02:13:49.717Z,7.67
2024-05-09T02:16:19.060Z,7.64
2024-05-09T02:18:50.638Z,7.65
2024-05-09T02:21:20.455Z,7.59
2024-05-09T02:23:50.251Z,7.58
2024-05-09T02:26:19.831Z,7.54
2024-05-09T02:28:49.971Z,7.53
2024-05-09T02:31:20.422Z,7.52
2024-05-09T02:33:50.264Z,7.46
2024-05-09T02:36:22.532Z,7.46
2024-05-09T02:38:53.846Z,7.38
2024-05-09T02:41:23.806Z,7.40
2024-05-09T02:43:54.665Z,7.41
2024-05-09T02:46:24.002Z,7.41
2024-05-09T02:48:54.224Z,7.43
2024-05-09T02:51:23.616Z,7.41
2024-05-09T02:53:54.463Z,7.35
2024-05-09T02:56:23.878Z,7.33
2024-05-09T02:58:54.070Z,7.31
2024-05-09T03:01:23.768Z,7.40
2024-05-09T03:03:54.360Z,7.34
2024-05-09T03:06:24.517Z,7.32
2024-05-09T03:08:54.156Z,7.28
2024-05-09T03:11:25.264Z,7.25
2024-05-09T03:13:55.090Z,7.14
2024-05-09T03:16:24.518Z,7.11
2024-05-09T03:18:57.063Z,7.10
2024-05-09T03:21:26.349Z,7.11
2024-05-09T03:23:56.086Z,7.30
2024-05-09T03:26:25.316Z,7.43
2024-05-09T03:28:55.677Z,7.42
2024-05-09T03:31:24.891Z,7.28
2024-05-09T03:33:54.525Z,7.24
2024-05-09T03:36:23.940Z,7.20
2024-05-09T03:38:53.767Z,7.19
2024-05-09T03:41:23.195Z,7.17
2024-05-09T03:43:52.815Z,7.14
2024-05-09T03:46:22.334Z,7.12
2024-05-09T03:48:51.807Z,7.09
2024-05-09T03:51:21.368Z,7.10
2024-05-09T03:53:50.658Z,7.12
2024-05-09T03:56:20.258Z,7.15
2024-05-09T03:58:49.759Z,7.16
2024-05-09T04:01:19.165Z,7.12
2024-05-09T04:03:48.569Z,7.08
2024-05-09T04:06:26.498Z,7.13
2024-05-09T04:08:56.354Z,7.20
2024-05-09T04:11:25.638Z,7.24
2024-05-09T04:13:54.997Z,7.22
2024-05-09T04:16:24.446Z,7.22
2024-05-09T04:18:54.058Z,7.30
2024-05-09T04:21:23.373Z,7.32
2024-05-09T04:23:52.867Z,7.34
2024-05-09T04:26:22.762Z,7.29
2024-05-09T04:28:52.150Z,7.29
2024-05-09T04:31:21.510Z,7.32
2024-05-09T04:33:50.971Z,7.31
2024-05-09T04:36:20.400Z,7.32
2024-05-09T04:38:50.080Z,7.39
2024-05-09T04:41:19.997Z,7.44
2024-05-09T04:43:51.017Z,7.53
2024-05-09T04:46:18.287Z,7.55
2024-05-09T04:48:45.768Z,7.62
2024-05-09T04:51:15.227Z,7.82
2024-05-09T04:53:44.870Z,7.87
2024-05-09T04:56:14.347Z,7.91
2024-05-09T04:58:43.932Z,8.00
2024-05-09T05:01:15.387Z,8.13
2024-05-09T05:03:45.725Z,8.26
2024-05-09T05:06:15.256Z,8.35
2024-05-09T05:08:45.178Z,8.50
2024-05-09T05:11:14.454Z,8.61
2024-05-09T05:13:44.938Z,8.76
2024-05-09T05:16:14.591Z,8.87
2024-05-09T05:18:44.742Z,9.01
2024-05-09T05:21:14.066Z,9.11
2024-05-09T05:23:44.075Z,9.32
2024-05-09T05:26:13.540Z,9.46
2024-05-09T05:28:42.838Z,9.61
2024-05-09T05:31:12.401Z,9.78
2024-05-09T05:33:42.037Z,9.97
2024-05-09T05:36:11.693Z,10.09
2024-05-09T05:38:41.779Z,10.20
2024-05-09T05:41:11.216Z,10.44
2024-05-09T05:43:40.847Z,10.56
2024-05-09T05:46:10.162Z,10.52
2024-05-09T05:48:37.373Z,10.69
2024-05-09T05:51:07.966Z,10.77
2024-05-09T05:53:38.463Z,10.93
2024-05-09T05:56:08.659Z,11.09
2024-05-09T05:58:39.183Z,11.30
2024-05-09T06:01:09.148Z,11.52
2024-05-09T06:03:40.281Z,11.56
2024-05-09T06:06:10.386Z,11.59
2024-05-09T06:08:40.245Z,11.60
2024-05-09T06:11:10.337Z,11.62
2024-05-09T06:13:44.224Z,11.85
2024-05-09T06:16:14.140Z,11.92
2024-05-09T06:18:44.382Z,12.13
2024-05-09T06:21:17.365Z,12.20
2024-05-09T06:23:51.035Z,12.38
2024-05-09T06:26:21.156Z,12.46
2024-05-09T06:28:50.751Z,12.49
2024-05-09T06:31:21.066Z,12.67
2024-05-09T06:33:50.914Z,13.01
2024-05-09T06:36:22.293Z,12.96
2024-05-09T06:38:52.446Z,13.23
2024-05-09T06:41:21.910Z,13.46
2024-05-09T06:43:54.438Z,13.79
2024-05-09T06:46:25.443Z,13.31
2024-05-09T06:48:56.597Z,13.40
2024-05-09T06:51:26.688Z,13.29
2024-05-09T06:53:56.675Z,13.51
2024-05-09T06:56:26.213Z,13.55
2024-05-09T06:58:56.049Z,13.62
2024-05-09T07:01:25.957Z,13.70
2024-05-09T07:03:55.960Z,13.92
2024-05-09T07:06:25.686Z,14.45
2024-05-09T07:08:56.812Z,14.47
2024-05-09T07:11:26.550Z,14.59
2024-05-09T07:13:57.475Z,14.81
2024-05-09T07:16:24.920Z,15.10
2024-05-09T07:18:55.189Z,15.48
2024-05-09T07:21:24.899Z,15.81
2024-05-09T07:23:54.744Z,15.43
2024-05-09T07:26:24.911Z,15.54
2024-05-09T07:28:55.711Z,16.00
2024-05-09T07:31:28.133Z,16.35
2024-05-09T07:33:58.918Z,16.55
2024-05-09T07:36:27.272Z,16.85
2024-05-09T07:38:55.177Z,16.79
2024-05-09T07:41:25.069Z,17.03
2024-05-09T07:43:56.266Z,17.14
2024-05-09T07:47:36.774Z,17.01
2024-05-09T07:51:31.603Z,16.89
2024-05-09T07:54:40.895Z,16.95
2024-05-09T07:57:10.583Z,16.85
2024-05-09T07:59:40.376Z,16.87
2024-05-09T08:02:10.637Z,16.75
2024-05-09T08:04:40.884Z,16.79
2024-05-09T08:07:10.420Z,16.77
2024-05-09T08:09:39.828Z,16.73
2024-05-09T08:12:09.495Z,16.89
2024-05-09T08:14:39.427Z,17.01
2024-05-09T08:17:09.012Z,16.87
2024-05-09T08:19:40.924Z,16.58
2024-05-09T08:22:13.189Z,16.80
2024-05-09T08:24:43.456Z,17.14
2024-05-09T08:27:13.162Z,17.56
2024-05-09T08:29:44.293Z,17.61
2024-05-09T08:32:14.734Z,17.47
2024-05-09T08:34:44.756Z,17.87
2024-05-09T08:37:21.499Z,17.49
2024-05-09T08:39:53.978Z,17.55
2024-05-09T08:42:23.898Z,17.46
2024-05-09T08:44:54.079Z,17.56
2024-05-09T08:47:24.967Z,17.58
2024-05-09T08:49:58.800Z,17.90
2024-05-09T08:52:28.883Z,18.00
2024-05-09T08:54:59.162Z,18.33
2024-05-09T08:57:30.977Z,19.10
2024-05-09T09:00:10.230Z,20.11
2024-05-09T09:02:47.466Z,20.48
2024-05-09T09:05:21.422Z,20.95
2024-05-09T09:07:52.048Z,21.25
2024-05-09T09:10:29.922Z,21.64
2024-05-09T09:13:05.072Z,22.11
2024-05-09T09:15:47.298Z,22.33
2024-05-09T09:18:19.448Z,22.27
2024-05-09T09:20:50.230Z,22.23
2024-05-09T09:23:20.402Z,23.11
2024-05-09T09:25:51.993Z,21.97
2024-05-09T09:28:23.412Z,22.09
2024-05-09T09:30:53.685Z,22.82
2024-05-09T09:33:26.163Z,23.24
2024-05-09T09:35:56.180Z,23.74
2024-05-09T09:38:30.720Z,23.35
2024-05-09T09:41:05.212Z,23.10
2024-05-09T09:43:36.383Z,23.59
2024-05-09T09:46:09.573Z,23.60
2024-05-09T09:48:42.774Z,23.08
2024-05-09T09:51:14.440Z,22.82
2024-05-09T09:53:46.060Z,23.20
2024-05-09T09:56:18.043Z,23.91
2024-05-09T09:58:49.095Z,24.10
2024-05-09T10:01:18.985Z,24.42
2024-05-09T10:03:50.408Z,24.82
2024-05-09T10:06:23.221Z,23.94
2024-05-09T10:08:54.102Z,24.23
2024-05-09T10:11:25.939Z,23.82
2024-05-09T10:13:57.496Z,23.65
2024-05-09T10:16:31.275Z,23.27
2024-05-09T10:19:02.228Z,23.76
2024-05-09T10:21:32.658Z,24.36
2024-05-09T10:24:03.828Z,24.65
2024-05-09T10:26:36.228Z,24.53
2024-05-09T10:29:16.926Z,23.40
2024-05-09T10:31:47.610Z,23.24
2024-05-09T10:34:24.104Z,23.14
2024-05-09T10:36:55.851Z,23.16
2024-05-09T10:39:26.538Z,23.05
2024-05-09T10:41:56.260Z,22.86
2024-05-09T10:44:26.546Z,23.37
2024-05-09T10:46:56.496Z,23.42
2024-05-09T10:49:26.570Z,24.45
2024-05-09T10:51:56.738Z,24.05
2024-05-09T10:54:40.959Z,24.36
2024-05-09T10:57:10.636Z,24.28
2024-05-09T10:59:43.219Z,24.66
2024-05-09T11:02:13.526Z,24.92
2024-05-09T11:04:48.058Z,25.04
2024-05-09T11:07:20.140Z,25.28
2024-05-09T11:09:50.873Z,25.15
2024-05-09T11:12:20.614Z,25.37
2024-05-09T11:14:54.939Z,24.36
2024-05-09T11:17:25.137Z,23.67
2024-05-09T11:19:56.124Z,23.61
2024-05-09T11:22:32.178Z,24.04
2024-05-09T11:25:03.894Z,25.20
2024-05-09T11:27:34.596Z,26.15
2024-05-09T11:30:09.163Z,25.97
2024-05-09T11:32:44.159Z,25.69
2024-05-09T11:35:15.548Z,26.09
2024-05-09T11:37:46.392Z,25.78
2024-05-09T11:40:24.730Z,26.02
2024-05-09T11:42:59.279Z,26.13
2024-05-09T11:45:30.215Z,26.23
2024-05-09T11:48:00.960Z,26.64
2024-05-09T11:50:35.571Z,26.41
2024-05-09T11:53:07.210Z,26.66
2024-05-09T11:55:38.191Z,25.87
2024-05-09T11:58:09.013Z,26.33
2024-05-09T12:00:38.554Z,26.15
2024-05-09T12:03:08.777Z,26.57
2024-05-09T12:05:39.097Z,26.54
2024-05-09T12:08:09.864Z,26.62
2024-05-09T12:10:41.383Z,27.09
2024-05-09T12:13:11.890Z,26.48
2024-05-09T12:15:42.553Z,26.32
2024-05-09T12:18:14.598Z,25.43
2024-05-09T12:20:44.779Z,24.39
2024-05-09T12:23:16.174Z,25.36
2024-05-09T12:25:46.774Z,25.23
2024-05-09T12:28:17.690Z,24.94
2024-05-09T12:30:49.904Z,25.42
2024-05-09T12:33:20.974Z,25.36
2024-05-09T12:35:51.431Z,24.42
2024-05-09T12:38:22.315Z,25.63
2024-05-09T12:40:52.267Z,25.58
2024-05-09T12:43:22.593Z,24.42
2024-05-09T12:45:52.496Z,25.00
2024-05-09T12:48:23.172Z,23.99
2024-05-09T12:50:55.027Z,23.73
2024-05-09T12:53:25.825Z,24.16
2024-05-09T12:55:59.960Z,25.19
2024-05-09T12:58:32.477Z,25.20
2024-05-09T13:01:02.303Z,25.50
2024-05-09T13:03:32.099Z,26.20
2024-05-09T13:05:59.588Z,25.90
2024-05-09T13:08:27.354Z,26.07
2024-05-09T13:10:57.183Z,26.43
2024-05-09T13:13:29.213Z,26.37
2024-05-09T13:15:58.832Z,26.26
2024-05-09T13:18:28.580Z,26.07
2024-05-09T13:20:58.037Z,26.50
2024-05-09T13:23:27.407Z,26.09
2024-05-09T13:25:56.822Z,27.24
2024-05-09T13:28:26.738Z,27.51
2024-05-09T13:30:56.144Z,27.64
2024-05-09T13:33:25.629Z,28.13
2024-05-09T13:35:55.094Z,27.61
2024-05-09T13:38:25.052Z,27.74
2024-05-09T13:40:54.409Z,27.17
2024-05-09T13:43:23.843Z,27.32
2024-05-09T13:45:55.639Z,27.61
2024-05-09T13:48:25.518Z,27.31
2024-05-09T13:50:55.667Z,28.28
2024-05-09T13:53:25.533Z,27.84
2024-05-09T13:55:54.790Z,27.64
2024-05-09T13:58:24.303Z,27.69
2024-05-09T14:00:53.884Z,27.23
2024-05-09T14:03:24.674Z,27.42
2024-05-09T14:05:54.389Z,26.70
2024-05-09T14:08:24.223Z,27.36
2024-05-09T14:10:53.775Z,26.94
2024-05-09T14:13:23.172Z,26.73
2024-05-09T14:15:52.806Z,26.68
2024-05-09T14:18:22.474Z,25.99
2024-05-09T14:20:52.014Z,26.58
2024-05-09T14:23:22.742Z,26.02
2024-05-09T14:25:55.230Z,25.67
2024-05-09T14:28:26.350Z,25.74
2024-05-09T14:30:56.892Z,25.87
2024-05-09T14:33:27.559Z,25.62
2024-05-09T14:35:57.069Z,25.81
2024-05-09T14:38:27.522Z,26.20
2024-05-09T14:40:57.178Z,25.92
2024-05-09T14:43:27.390Z,24.91
2024-05-09T14:45:57.123Z,25.47
2024-05-09T14:48:27.252Z,25.21
2024-05-09T14:50:56.568Z,25.17
2024-05-09T14:53:27.131Z,25.32
2024-05-09T14:55:57.570Z,24.84
2024-05-09T14:58:26.946Z,24.78
2024-05-09T15:00:56.533Z,24.68
2024-05-09T15:03:25.987Z,23.67
2024-05-09T15:05:55.690Z,23.50
2024-05-09T15:08:25.534Z,23.37
2024-05-09T15:10:55.134Z,23.97
2024-05-09T15:13:25.028Z,24.27
2024-05-09T15:15:54.790Z,23.49
2024-05-09T15:18:24.753Z,23.64
2024-05-09T15:20:54.239Z,23.79
2024-05-09T15:23:24.304Z,23.47
2024-05-09T15:25:53.645Z,23.34
2024-05-09T15:28:23.487Z,23.94
2024-05-09T15:30:53.168Z,23.90
2024-05-09T15:33:22.564Z,23.74
2024-05-09T15:35:52.330Z,22.97
2024-05-09T15:38:21.889Z,23.69
2024-05-09T15:40:51.306Z,23.74
2024-05-09T15:43:20.867Z,23.57
2024-05-09T15:45:50.480Z,23.87
2024-05-09T15:48:20.403Z,23.73
2024-05-09T15:50:50.237Z,23.55
2024-05-09T15:53:19.830Z,23.30
2024-05-09T15:55:49.344Z,23.26
2024-05-09T15:58:20.063Z,23.69
2024-05-09T16:00:52.030Z,23.40
2024-05-09T16:03:22.676Z,23.03
2024-05-09T16:05:52.889Z,23.26
2024-05-09T16:08:23.497Z,23.20
2024-05-09T16:10:53.088Z,23.01
2024-05-09T16:13:22.975Z,22.99
2024-05-09T16:15:52.805Z,22.64
2024-05-09T16:18:22.725Z,22.27
2024-05-09T16:20:59.543Z,22.35
2024-05-09T16:23:29.407Z,22.02
2024-05-09T16:25:58.911Z,21.68
2024-05-09T16:28:28.721Z,21.20
2024-05-09T16:30:59.380Z,21.14
2024-05-09T16:33:29.733Z,21.36
2024-05-09T16:35:59.200Z,20.85
2024-05-09T16:38:28.620Z,20.55
2024-05-09T16:40:58.335Z,20.59
2024-05-09T16:43:27.661Z,20.58
2024-05-09T16:45:57.251Z,20.60
2024-05-09T16:48:27.229Z,20.54
2024-05-09T16:50:56.832Z,20.09
2024-05-09T16:53:26.348Z,20.17
2024-05-09T16:55:56.348Z,19.83
2024-05-09T16:58:26.606Z,19.94
2024-05-09T17:00:56.419Z,19.77
2024-05-09T17:03:26.263Z,19.72
2024-05-09T17:05:56.122Z,19.67
2024-05-09T17:08:25.574Z,19.53
2024-05-09T17:10:55.643Z,19.35
2024-05-09T17:13:25.547Z,19.27
2024-05-09T17:15:55.440Z,19.32
2024-05-09T17:18:25.133Z,18.95
2024-05-09T17:20:55.066Z,19.11
2024-05-09T17:23:24.559Z,19.15
2024-05-09T17:25:54.794Z,18.92
2024-05-09T17:28:24.280Z,18.80
2024-05-09T17:30:54.025Z,18.61
2024-05-09T17:33:25.332Z,18.73
2024-05-09T17:35:54.827Z,18.57
2024-05-09T17:38:24.246Z,18.52
2024-05-09T17:40:55.060Z,18.55
2024-05-09T17:43:26.889Z,18.63
2024-05-09T17:45:56.562Z,18.61
2024-05-09T17:48:27.388Z,18.49
2024-05-09T17:50:57.201Z,18.29
2024-05-09T17:53:26.708Z,18.35
2024-05-09T17:55:56.470Z,18.29
2024-05-09T17:58:27.384Z,18.25
2024-05-09T18:00:57.140Z,18.23
2024-05-09T18:03:27.123Z,18.11
2024-05-09T18:05:57.008Z,18.05
2024-05-09T18:08:26.424Z,17.92
2024-05-09T18:10:56.142Z,17.87
2024-05-09T18:13:26.945Z,17.78
2024-05-09T18:15:56.514Z,17.72
2024-05-09T18:18:26.037Z,17.61
2024-05-09T18:20:55.816Z,17.62
2024-05-09T18:23:25.399Z,17.54
2024-05-09T18:25:56.475Z,17.53
2024-05-09T18:28:25.965Z,17.40
2024-05-09T18:30:55.649Z,17.36
2024-05-09T18:33:25.378Z,17.30
2024-05-09T18:35:55.134Z,17.18
2024-05-09T18:38:27.035Z,17.08
2024-05-09T18:40:56.573Z,17.05
2024-05-09T18:43:31.433Z,16.96
2024-05-09T18:46:07.675Z,17.00
2024-05-09T18:48:38.329Z,16.93
2024-05-09T18:51:07.775Z,16.85
2024-05-09T18:53:37.047Z,16.80
2024-05-09T18:56:07.869Z,16.72
2024-05-09T18:58:37.144Z,16.63
2024-05-09T19:01:06.828Z,16.57
2024-05-09T19:03:36.498Z,16.47
2024-05-09T19:06:06.258Z,16.45
2024-05-09T19:08:35.523Z,16.42
2024-05-09T19:11:05.656Z,16.31
2024-05-09T19:13:35.102Z,16.28
2024-05-09T19:16:04.814Z,16.24
2024-05-09T19:18:34.243Z,16.18
2024-05-09T19:21:01.935Z,16.13
2024-05-09T19:23:32.587Z,16.04
2024-05-09T19:26:03.290Z,16.02
2024-05-09T19:28:34.953Z,16.03
2024-05-09T19:31:04.842Z,16.00
2024-05-09T19:33:32.395Z,15.98
2024-05-09T19:35:59.711Z,15.95
2024-05-09T19:38:29.915Z,15.85
2024-05-09T19:40:59.793Z,15.90
2024-05-09T19:43:30.703Z,15.87
2024-05-09T19:46:01.417Z,15.84
2024-05-09T19:48:31.801Z,15.84
2024-05-09T19:51:02.755Z,15.83
2024-05-09T19:53:32.197Z,15.76
2024-05-09T19:56:01.570Z,15.72
2024-05-09T19:58:30.952Z,15.73
2024-05-09T20:01:00.353Z,15.74
2024-05-09T20:03:32.480Z,15.75
2024-05-09T20:06:01.826Z,15.74
2024-05-09T20:08:31.283Z,15.71
2024-05-09T20:11:00.635Z,15.69
2024-05-09T20:13:30.166Z,15.69
2024-05-09T20:16:01.400Z,15.65
2024-05-09T20:18:31.077Z,15.57
2024-05-09T20:21:01.849Z,15.65
2024-05-09T20:23:31.478Z,15.60
2024-05-09T20:26:01.295Z,15.65
2024-05-09T20:28:30.810Z,15.66
2024-05-09T20:31:00.537Z,15.63
2024-05-09T20:33:29.937Z,15.65
2024-05-09T20:36:01.836Z,15.66
2024-05-09T20:38:31.755Z,15.62
2024-05-09T20:41:01.845Z,15.63
2024-05-09T20:43:33.098Z,15.57
2024-05-09T20:46:03.040Z,15.62
2024-05-09T20:48:34.038Z,15.57
2024-05-09T20:51:03.931Z,15.55
2024-05-09T20:53:33.751Z,15.58
2024-05-09T20:56:03.042Z,15.47
2024-05-09T20:58:32.528Z,15.44
2024-05-09T21:01:01.871Z,15.44
2024-05-09T21:03:32.763Z,15.40
2024-05-09T21:06:02.633Z,15.38
2024-05-09T21:08:32.017Z,15.40
2024-05-09T21:11:01.262Z,15.39
2024-05-09T21:13:31.113Z,15.38
2024-05-09T21:16:00.749Z,15.36
2024-05-09T21:18:30.207Z,15.32
2024-05-09T21:20:59.797Z,15.32
2024-05-09T21:23:29.195Z,15.31
2024-05-09T21:25:58.842Z,15.22
2024-05-09T21:28:28.207Z,15.23
2024-05-09T21:30:57.638Z,15.27
2024-05-09T21:33:27.172Z,15.23
2024-05-09T21:35:56.647Z,15.21
2024-05-09T21:38:25.873Z,15.23
2024-05-09T21:40:55.817Z,15.26
2024-05-09T21:43:28.654Z,15.27
2024-05-09T21:45:58.119Z,15.19
2024-05-09T21:48:28.570Z,15.25
2024-05-09T21:50:58.048Z,15.17
2024-05-09T21:53:27.439Z,15.17
2024-05-09T21:55:57.077Z,15.23
2024-05-09T21:58:26.510Z,15.18
2024-05-09T22:00:55.981Z,15.24
2024-05-09T22:03:25.477Z,15.14
2024-05-09T22:05:54.858Z,15.14
2024-05-09T22:08:24.692Z,15.21
2024-05-09T22:10:54.219Z,15.16
2024-05-09T22:13:24.110Z,15.10
2024-05-09T22:15:53.669Z,15.10
2024-05-09T22:18:23.830Z,15.06
2024-05-09T22:20:53.901Z,15.14
2024-05-09T22:23:23.292Z,15.11
2024-05-09T22:25:52.593Z,15.09
2024-05-09T22:28:22.483Z,15.08
2024-05-09T22:30:53.068Z,15.01
2024-05-09T22:33:22.750Z,15.03
2024-05-09T22:35:52.013Z,14.95
2024-05-09T22:38:22.181Z,14.86
2024-05-09T22:40:52.268Z,14.87
2024-05-09T22:43:24.189Z,14.86
2024-05-09T22:45:55.115Z,14.85
2024-05-09T22:48:26.097Z,14.91
2024-05-09T22:50:55.676Z,14.83
2024-05-09T22:53:26.031Z,14.73
2024-05-09T22:55:55.511Z,14.83
2024-05-09T22:58:25.674Z,14.81
2024-05-09T23:00:53.604Z,14.78
2024-05-09T23:03:22.661Z,14.73
2024-05-09T23:05:52.501Z,14.75
2024-05-09T23:08:22.282Z,14.72
2024-05-09T23:10:51.580Z,14.66
2024-05-09T23:13:21.230Z,14.74
2024-05-09T23:15:50.524Z,14.70
2024-05-09T23:18:19.990Z,14.73
2024-05-09T23:20:50.060Z,14.68
2024-05-09T23:23:20.856Z,14.71
2024-05-09T23:25:50.310Z,14.64
2024-05-09T23:28:19.737Z,14.64
2024-05-09T23:30:49.124Z,14.65
2024-05-09T23:33:18.617Z,14.69
2024-05-09T23:35:48.611Z,14.65
2024-05-09T23:38:22.504Z,14.65
2024-05-09T23:40:53.036Z,14.57
2024-05-09T23:43:22.938Z,14.59
2024-05-09T23:45:50.425Z,14.58
2024-05-09T23:48:18.040Z,14.56
2024-05-09T23:50:47.439Z,14.62
2024-05-09T23:53:17.590Z,14.53
2024-05-09T23:55:46.835Z,14.51
2024-05-09T23:58:16.749Z,14.44
